Time;durP1;ratioP1;P1;durP2;ratioP2;P2;SDS_P1;SDS_P2;PMS_P1;PMS_P2;Temp;Humidity;BMP_temperature;BMP_pressure;BME280_temperature;BME280_humidity;BME280_pressure;Samples;Min_cycle;Max_cycle;Signal;HPM_P1;HPM_P2
2022/09/27 00:00:19;;;;;;;1.12;0.90;;;14.10;56.20;;;;;;20588;6772;281326;-87
2022/09/27 00:02:54;;;;;;;1.00;0.90;;;14.30;55.90;;;;;;20682;6775;117121;-87
2022/09/27 00:05:30;;;;;;;0.67;0.67;;;14.20;56.00;;;;;;20791;6763;117198;-88
2022/09/27 00:08:05;;;;;;;1.02;0.93;;;13.90;56.50;;;;;;20572;6773;307215;-87
2022/09/27 00:10:41;;;;;;;0.80;0.80;;;14.00;56.60;;;;;;20564;6766;311434;-88
2022/09/27 00:13:26;;;;;;;;;;;;;;;;;;;;;
2022/09/27 00:15:57;;;;;;;0.70;0.70;;;14.10;56.00;;;;;;20811;6759;117459;-88
2022/09/27 00:18:33;;;;;;;1.00;0.90;;;13.80;56.60;;;;;;20621;6759;304100;-86
2022/09/27 00:21:08;;;;;;;0.90;0.90;;;13.90;57.00;;;;;;20788;6771;120180;-87
2022/09/27 00:23:44;;;;;;;1.17;0.73;;;13.90;56.90;;;;;;20616;6771;117356;-87
2022/09/27 00:26:19;;;;;;;1.65;0.93;;;13.60;57.20;;;;;;20567;6771;306761;-87
2022/09/27 00:28:55;;;;;;;0.50;0.50;;;13.70;57.20;;;;;;20816;6764;117023;-87
2022/09/27 00:31:31;;;;;;;1.73;0.82;;;13.70;57.10;;;;;;20581;6752;276213;-87
2022/09/27 00:34:06;;;;;;;1.20;0.60;;;13.90;57.10;;;;;;20593;6766;310680;-87
2022/09/27 00:36:42;;;;;;;0.90;0.90;;;14.10;56.50;;;;;;20518;6788;306681;-87
2022/09/27 00:39:17;;;;;;;1.20;0.85;;;14.40;56.20;;;;;;20516;6790;336978;-87
2022/09/27 00:41:53;;;;;;;1.23;0.70;;;14.50;55.50;;;;;;20482;6789;309351;-87
2022/09/27 00:44:32;;;;;;;0.53;0.53;;;14.60;55.00;;;;;;20575;6773;308281;-87
2022/09/27 00:47:10;;;;;;;0.50;0.50;;;14.70;55.10;;;;;;20786;6773;116917;-86
2022/09/27 00:49:46;;;;;;;0.40;0.40;;;14.00;56.20;;;;;;20853;6758;116989;-87
2022/09/27 00:52:22;;;;;;;0.93;0.70;;;13.90;56.10;;;;;;20724;6769;117033;-87
2022/09/27 00:54:58;;;;;;;1.10;0.43;;;13.60;56.80;;;;;;20518;6778;308411;-87
2022/09/27 00:57:35;;;;;;;1.07;0.60;;;13.80;57.10;;;;;;20513;6790;305343;-87
2022/09/27 01:00:11;;;;;;;1.30;0.60;;;14.10;56.80;;;;;;20553;6778;335780;-87
2022/09/27 01:02:47;;;;;;;0.60;0.60;;;14.10;56.30;;;;;;20672;6779;117036;-86
2022/09/27 01:05:23;;;;;;;0.63;0.50;;;14.10;56.30;;;;;;20766;6778;117568;-86
2022/09/27 01:07:59;;;;;;;0.60;0.40;;;13.80;56.90;;;;;;20761;6777;122944;-86
2022/09/27 01:10:35;;;;;;;0.43;0.43;;;13.60;57.60;;;;;;20564;6778;281606;-87
2022/09/27 01:13:12;;;;;;;0.70;0.50;;;13.70;57.60;;;;;;20439;6778;308785;-87
2022/09/27 01:16:04;;;;;;;1.00;0.50;;;14.10;56.70;;;;;;20533;6778;311083;-87
2022/09/27 01:18:50;;;;;;;1.07;0.50;;;14.40;56.10;;;;;;20559;6778;298280;-87
2022/09/27 01:21:29;;;;;;;0.97;0.30;;;14.50;55.20;;;;;;20764;6778;117191;-85
2022/09/27 01:24:24;;;;;;;2.00;0.40;;;14.30;55.50;;;;;;20385;6834;309109;-86
2022/09/27 01:27:19;;;;;;;0.60;0.60;;;14.30;55.90;;;;;;20575;6772;277377;-86
2022/09/27 01:30:11;;;;;;;2.33;0.50;;;14.50;55.70;;;;;;20722;6788;117645;-86
2022/09/27 01:32:59;;;;;;;0.30;0.30;;;14.20;55.80;;;;;;20654;6786;117652;-85
2022/09/27 01:35:38;;;;;;;0.40;0.40;;;13.80;56.50;;;;;;20563;6771;306325;-85
2022/09/27 01:38:14;;;;;;;0.40;0.30;;;13.90;56.80;;;;;;20784;6771;117004;-86
2022/09/27 01:40:56;;;;;;;0.55;0.55;;;13.80;56.90;;;;;;20584;6771;282169;-86
2022/09/27 01:43:32;;;;;;;0.33;0.33;;;13.90;57.40;;;;;;20627;6771;117420;-85
2022/09/27 01:46:07;;;;;;;1.70;0.47;;;13.90;57.40;;;;;;20773;6776;120005;-86
2022/09/27 01:48:43;;;;;;;1.70;0.40;;;13.60;57.80;;;;;;20556;6775;305997;-85
2022/09/27 01:51:20;;;;;;;0.50;0.50;;;13.80;57.90;;;;;;20792;6771;117107;-85
2022/09/27 01:53:55;;;;;;;0.30;0.30;;;13.70;57.60;;;;;;20675;6771;118058;-87
2022/09/27 01:56:31;;;;;;;1.50;0.30;;;13.50;58.00;;;;;;20836;6756;116906;-85
2022/09/27 01:59:10;;;;;;;0.30;0.30;;;13.30;58.50;;;;;;20849;6771;117525;-85
2022/09/27 02:01:45;;;;;;;0.97;0.40;;;13.10;58.90;;;;;;20820;6737;116204;-85
2022/09/27 02:04:21;;;;;;;0.40;0.40;;;13.10;59.30;;;;;;20885;6737;116870;-85
2022/09/27 02:06:58;;;;;;;0.90;0.30;;;13.00;59.60;;;;;;20840;6752;122167;-85
2022/09/27 02:09:32;;;;;;;0.30;0.30;;;12.90;59.80;;;;;;20831;6752;117840;-85
2022/09/27 02:12:07;;;;;;;0.30;0.30;;;12.90;60.00;;;;;;20799;6752;117310;-85
2022/09/27 02:14:46;;;;;;;0.32;0.32;;;12.90;60.20;;;;;;20679;6793;304226;-85
2022/09/27 02:17:58;;;;;;;0.80;0.50;;;13.30;60.20;;;;;;20963;6544;89730;-84
2022/09/27 02:20:30;;;;;;;0.80;0.60;;;13.40;59.70;;;;;;20796;6825;117193;-85
2022/09/27 02:23:15;;;;;;;0.50;0.47;;;13.30;59.80;;;;;;20583;6810;325596;-86
2022/09/27 02:25:54;;;;;;;0.57;0.37;;;13.50;59.60;;;;;;20705;6866;117152;-85
2022/09/27 02:28:32;;;;;;;0.32;0.32;;;13.60;59.30;;;;;;20441;6889;311609;-86
2022/09/27 02:30:58;;;;;;;5.13;0.60;;;13.80;59.00;;;;;;20643;6877;116874;-85
2022/09/27 02:33:24;;;;;;;0.90;0.37;;;13.70;58.70;;;;;;20682;6879;117151;-85
2022/09/27 02:35:49;;;;;;;1.08;0.40;;;13.50;59.00;;;;;;20609;6867;119803;-86
2022/09/27 02:38:15;;;;;;;0.47;0.40;;;13.30;59.40;;;;;;20703;6867;123506;-85
2022/09/27 02:40:43;;;;;;;0.50;0.50;;;13.20;59.80;;;;;;20702;6874;67980;-85
2022/09/27 02:43:09;;;;;;;0.27;0.27;;;13.10;60.10;;;;;;20642;6874;116442;-85
2022/09/27 02:46:07;;;;;;;0.70;0.60;;;12.90;60.30;;;;;;20376;6870;311205;-86
2022/09/27 02:48:53;;;;;;;0.60;0.40;;;13.20;60.70;;;;;;20629;6870;117755;-87
2022/09/27 02:51:51;;;;;;;0.67;0.40;;;13.30;60.30;;;;;;20633;6866;114004;-87
2022/09/27 02:54:21;;;;;;;2.43;0.60;;;13.10;60.60;;;;;;20626;6866;117862;-85
2022/09/27 02:56:53;;;;;;;1.07;0.50;;;13.00;60.90;;;;;;20363;6882;309137;-86
2022/09/27 02:59:19;;;;;;;2.10;0.50;;;13.20;61.00;;;;;;20578;6882;118164;-86
2022/09/27 03:02:04;;;;;;;0.60;0.50;;;13.30;60.60;;;;;;20521;6882;118346;-87
2022/09/27 03:04:50;;;;;;;2.50;0.80;;;13.10;60.70;;;;;;20445;6868;278640;-87
2022/09/27 03:07:15;;;;;;;0.43;0.43;;;13.40;60.60;;;;;;20429;6868;309718;-86
2022/09/27 03:09:44;;;;;;;0.50;0.50;;;13.80;59.40;;;;;;20419;6868;312771;-86
2022/09/27 03:12:09;;;;;;;0.50;0.50;;;14.00;58.50;;;;;;20542;6894;118045;-86
2022/09/27 03:14:37;;;;;;;0.50;0.50;;;13.90;58.60;;;;;;20443;6859;308354;-86
2022/09/27 03:17:03;;;;;;;0.50;0.50;;;13.90;58.60;;;;;;20445;6859;309131;-86
2022/09/27 03:19:28;;;;;;;0.30;0.30;;;14.20;58.10;;;;;;20623;6873;121015;-86
2022/09/27 03:21:54;;;;;;;1.70;0.40;;;14.00;58.20;;;;;;20434;6870;338742;-86
2022/09/27 03:24:19;;;;;;;0.40;0.40;;;14.10;57.80;;;;;;20651;6870;118298;-86
2022/09/27 03:26:46;;;;;;;0.47;0.40;;;13.70;58.70;;;;;;20658;6867;117429;-86
2022/09/27 03:29:11;;;;;;;0.30;0.30;;;13.70;58.50;;;;;;20651;6868;117299;-86
2022/09/27 03:31:37;;;;;;;1.90;0.50;;;13.50;59.00;;;;;;20555;6890;117733;-86
2022/09/27 03:34:04;;;;;;;1.20;0.57;;;13.30;59.40;;;;;;20371;6890;310233;-88
2022/09/27 03:36:29;;;;;;;0.50;0.50;;;13.50;59.10;;;;;;20573;6891;117861;-86
2022/09/27 03:38:55;;;;;;;0.60;0.60;;;13.80;57.50;;;;;;20380;6891;295419;-86
2022/09/27 03:41:21;;;;;;;0.80;0.70;;;13.70;57.40;;;;;;20591;6891;118078;-86
2022/09/27 03:43:47;;;;;;;1.40;1.10;;;13.70;57.30;;;;;;20364;6891;308312;-86
2022/09/27 03:46:12;;;;;;;1.87;1.37;;;13.80;55.00;;;;;;20389;6880;343867;-86
2022/09/27 03:48:38;;;;;;;2.00;1.13;;;14.10;54.50;;;;;;20434;6870;312866;-86
2022/09/27 03:51:05;;;;;;;2.43;1.10;;;14.20;53.70;;;;;;20658;6863;117811;-86
2022/09/27 03:53:31;;;;;;;3.03;1.50;;;14.00;53.80;;;;;;20422;6863;308762;-86
2022/09/27 03:55:57;;;;;;;2.28;1.02;;;14.00;53.50;;;;;;20463;6850;328834;-86
2022/09/27 03:58:23;;;;;;;2.43;1.60;;;14.40;53.40;;;;;;20449;6865;310095;-86
2022/09/27 04:00:49;;;;;;;2.77;1.30;;;14.30;53.30;;;;;;20665;6865;117716;-86
2022/09/27 04:03:16;;;;;;;2.43;1.47;;;14.10;53.70;;;;;;20465;6860;312168;-86
2022/09/27 04:05:41;;;;;;;2.10;1.30;;;14.10;53.70;;;;;;20628;6865;117448;-86
2022/09/27 04:08:06;;;;;;;1.97;1.00;;;13.90;54.10;;;;;;20688;6853;121537;-86
2022/09/27 04:10:32;;;;;;;2.45;1.20;;;13.60;54.80;;;;;;20619;6880;124592;-86
2022/09/27 04:12:57;;;;;;;2.00;1.52;;;13.40;55.40;;;;;;20402;6880;308956;-86
2022/09/27 04:15:23;;;;;;;3.30;1.10;;;13.40;55.20;;;;;;20636;6877;117867;-89
2022/09/27 04:17:49;;;;;;;2.90;1.33;;;13.40;55.20;;;;;;20443;6862;338861;-88
2022/09/27 04:20:15;;;;;;;2.53;1.50;;;13.50;55.00;;;;;;20444;6867;283485;-89
2022/09/27 04:22:40;;;;;;;2.00;1.40;;;13.80;54.50;;;;;;20419;6872;285137;-87
2022/09/27 04:25:06;;;;;;;2.10;1.50;;;14.00;53.80;;;;;;20410;6872;280020;-88
2022/09/27 04:27:32;;;;;;;2.03;1.40;;;14.10;53.10;;;;;;20416;6867;309169;-87
2022/09/27 04:29:58;;;;;;;3.12;1.62;;;14.20;52.50;;;;;;20475;6857;309353;-87
2022/09/27 04:32:24;;;;;;;2.23;1.57;;;14.20;52.50;;;;;;20458;6863;280082;-88
2022/09/27 04:37:37;;;;;;;5.23;1.57;;;14.30;52.40;;;;;;20603;6877;118297;-87
2022/09/27 04:40:02;;;;;;;2.72;1.55;;;13.90;53.00;;;;;;20415;6865;313903;-88
2022/09/27 04:42:27;;;;;;;3.00;2.10;;;13.80;53.50;;;;;;20435;6865;278599;-87
2022/09/27 04:44:53;;;;;;;2.53;1.30;;;14.00;53.50;;;;;;20672;6865;117817;-87
2022/09/27 04:47:20;;;;;;;2.43;1.80;;;13.80;53.80;;;;;;20458;6865;282108;-88
2022/09/27 04:49:44;;;;;;;4.13;1.90;;;13.70;54.20;;;;;;20432;6866;280437;-88
2022/09/27 04:52:13;;;;;;;2.92;1.62;;;13.90;54.00;;;;;;20447;6866;339300;-87
2022/09/27 04:54:40;;;;;;;3.27;1.40;;;14.00;53.70;;;;;;20642;6866;121706;-87
2022/09/27 04:57:05;;;;;;;3.90;1.70;;;13.80;54.00;;;;;;20646;6866;117899;-87
2022/09/27 04:59:33;;;;;;;2.65;1.40;;;13.10;55.50;;;;;;20632;6866;118325;-89
2022/09/27 05:01:59;;;;;;;3.20;1.73;;;13.10;55.40;;;;;;20439;6866;309995;-91
2022/09/27 05:04:24;;;;;;;3.87;1.63;;;13.20;55.90;;;;;;20648;6866;118532;-90
2022/09/27 05:06:51;;;;;;;1.83;1.57;;;12.90;56.30;;;;;;20652;6866;117836;-88
2022/09/27 05:09:19;;;;;;;1.60;1.37;;;12.90;56.30;;;;;;20670;6866;117603;-86
2022/09/27 05:11:45;;;;;;;1.40;1.10;;;12.70;56.80;;;;;;20647;6866;117449;-86
2022/09/27 05:14:13;;;;;;;2.70;1.80;;;12.60;57.40;;;;;;20447;6866;279996;-91
2022/09/27 05:16:38;;;;;;;4.63;1.73;;;12.80;57.50;;;;;;20666;6866;117342;-90
2022/09/27 05:19:07;;;;;;;2.73;1.67;;;12.80;57.30;;;;;;20640;6866;118142;-91
2022/09/27 05:21:32;;;;;;;4.12;2.08;;;12.70;57.70;;;;;;20431;6866;310129;-90
2022/09/27 05:24:00;;;;;;;3.27;2.47;;;12.80;57.80;;;;;;20445;6866;279667;-92
2022/09/27 05:26:25;;;;;;;4.50;1.70;;;13.20;57.50;;;;;;20659;6866;117622;-89
2022/09/27 05:28:51;;;;;;;3.67;1.83;;;13.20;57.30;;;;;;20671;6866;118540;-90
2022/09/27 05:31:16;;;;;;;3.00;2.10;;;12.90;57.60;;;;;;20449;6866;289243;-90
2022/09/27 05:33:41;;;;;;;2.03;1.75;;;13.10;57.80;;;;;;20626;6866;117851;-89
2022/09/27 05:36:07;;;;;;;3.87;1.85;;;13.00;57.60;;;;;;20674;6866;118215;-89
2022/09/27 05:38:35;;;;;;;3.08;1.60;;;12.80;57.90;;;;;;20671;6866;123026;-90
2022/09/27 05:41:00;;;;;;;3.00;1.90;;;12.70;58.40;;;;;;20458;6866;280058;-88
2022/09/27 05:43:27;;;;;;;2.55;1.80;;;12.90;57.90;;;;;;20458;6866;342606;-89
2022/09/27 05:45:52;;;;;;;2.40;1.27;;;13.20;56.90;;;;;;20613;6876;118082;-89
2022/09/27 05:48:20;;;;;;;1.62;1.52;;;13.30;56.40;;;;;;20417;6878;310045;-89
2022/09/27 05:50:46;;;;;;;2.83;1.60;;;13.20;56.30;;;;;;20656;6871;117386;-88
2022/09/27 05:53:12;;;;;;;3.73;1.53;;;13.10;56.30;;;;;;20649;6873;116470;-89
2022/09/27 05:55:38;;;;;;;2.03;1.80;;;12.90;57.00;;;;;;20611;6878;122117;-89
2022/09/27 05:58:04;;;;;;;3.43;1.73;;;12.50;57.90;;;;;;20641;6875;117536;-89
2022/09/27 06:00:30;;;;;;;1.50;1.40;;;12.50;57.90;;;;;;20668;6857;118190;-88
2022/09/27 06:02:55;;;;;;;3.40;1.50;;;12.30;58.20;;;;;;20485;6857;294282;-88
2022/09/27 06:05:23;;;;;;;3.00;1.40;;;12.50;58.20;;;;;;20376;6872;310027;-89
2022/09/27 06:07:51;;;;;;;1.40;1.30;;;13.00;57.60;;;;;;20599;6872;117524;-90
2022/09/27 06:10:16;;;;;;;1.30;1.20;;;13.00;57.40;;;;;;20658;6872;117962;-88
2022/09/27 06:12:42;;;;;;;2.30;0.93;;;12.70;57.70;;;;;;20676;6865;118013;-87
2022/09/27 06:15:09;;;;;;;2.40;1.70;;;12.50;58.20;;;;;;20485;6858;284262;-85
2022/09/27 06:17:34;;;;;;;2.67;1.57;;;12.70;58.00;;;;;;20425;6865;312836;-87
2022/09/27 06:20:01;;;;;;;2.00;1.10;;;13.10;57.00;;;;;;20703;6845;118157;-87
2022/09/27 06:22:26;;;;;;;2.23;1.27;;;13.00;56.90;;;;;;20632;6871;124456;-87
2022/09/27 06:24:52;;;;;;;0.90;0.90;;;12.70;58.10;;;;;;20631;6876;117369;-86
2022/09/27 06:27:18;;;;;;;1.60;1.50;;;12.70;58.10;;;;;;20683;6853;117983;-86
2022/09/27 06:29:44;;;;;;;1.50;1.30;;;12.60;58.60;;;;;;20494;6853;305785;-87
2022/09/27 06:32:10;;;;;;;1.60;1.20;;;12.80;58.10;;;;;;20699;6853;118495;-88
2022/09/27 06:34:35;;;;;;;2.50;1.20;;;12.90;57.90;;;;;;20483;6853;318880;-87
2022/09/27 06:37:00;;;;;;;1.67;1.30;;;13.10;57.00;;;;;;20489;6853;279558;-86
2022/09/27 06:39:26;;;;;;;4.43;3.47;;;13.40;55.90;;;;;;20478;6853;312894;-88
2022/09/27 06:41:58;;;;;;;3.53;3.23;;;13.70;55.40;;;;;;20681;6853;124584;-89
2022/09/27 06:44:23;;;;;;;6.43;5.93;;;13.50;55.70;;;;;;20693;6853;117677;-89
2022/09/27 06:46:48;;;;;;;2.90;2.70;;;13.20;56.40;;;;;;20695;6853;118626;-89
2022/09/27 06:49:14;;;;;;;3.47;3.17;;;12.90;56.90;;;;;;20700;6853;117332;-89
2022/09/27 06:51:41;;;;;;;3.10;2.90;;;12.90;56.90;;;;;;20482;6853;309831;-89
2022/09/27 06:54:06;;;;;;;2.30;2.10;;;12.90;56.90;;;;;;20704;6853;118036;-88
2022/09/27 06:56:31;;;;;;;3.25;2.78;;;12.90;56.90;;;;;;20495;6853;312310;-88
2022/09/27 07:01:42;;;;;;;3.87;3.67;;;13.10;56.70;;;;;;20684;6852;118010;-89
2022/09/27 07:04:10;;;;;;;4.75;4.45;;;12.80;58.00;;;;;;20701;6853;117646;-88
2022/09/27 07:06:35;;;;;;;6.33;5.83;;;12.70;57.90;;;;;;20680;6853;117868;-87
2022/09/27 07:09:00;;;;;;;6.07;5.60;;;12.60;58.40;;;;;;20683;6853;117557;-88
2022/09/27 07:11:25;;;;;;;8.10;7.40;;;12.60;58.90;;;;;;20487;6853;305926;-90
2022/09/27 07:13:51;;;;;;;5.93;5.53;;;12.80;58.30;;;;;;20455;6853;312531;-89
2022/09/27 07:16:16;;;;;;;8.03;7.33;;;13.30;57.60;;;;;;20494;6853;279016;-89
2022/09/27 07:18:42;;;;;;;6.07;5.65;;;13.60;56.50;;;;;;20496;6853;312931;-88
2022/09/27 07:21:09;;;;;;;4.57;4.18;;;13.90;55.80;;;;;;20496;6853;306421;-88
2022/09/27 07:23:36;;;;;;;4.50;4.07;;;14.00;55.10;;;;;;20696;6853;121349;-88
2022/09/27 07:26:03;;;;;;;5.57;5.18;;;13.90;55.50;;;;;;20508;6853;338852;-89
2022/09/27 07:28:27;;;;;;;1.93;1.83;;;13.90;55.00;;;;;;20706;6853;117577;-89
2022/09/27 07:30:55;;;;;;;2.97;2.77;;;13.70;55.70;;;;;;20515;6853;319236;-88
2022/09/27 07:33:22;;;;;;;4.40;3.37;;;13.90;55.50;;;;;;20705;6853;116813;-88
2022/09/27 07:35:48;;;;;;;1.67;1.10;;;14.00;56.30;;;;;;20694;6853;117510;-88
2022/09/27 07:38:13;;;;;;;2.10;2.00;;;14.00;56.90;;;;;;20494;6853;278161;-88
2022/09/27 07:40:45;;;;;;;3.73;3.43;;;14.10;55.00;;;;;;20500;6853;279759;-90
2022/09/27 07:43:11;;;;;;;3.30;3.10;;;14.50;54.70;;;;;;20496;6853;278724;-89
2022/09/27 07:45:36;;;;;;;1.87;1.77;;;15.20;52.80;;;;;;20470;6853;308445;-89
2022/09/27 07:48:06;;;;;;;1.37;1.27;;;15.10;52.70;;;;;;20488;6853;316143;-89
2022/09/27 07:50:31;;;;;;;1.40;0.67;;;15.40;52.30;;;;;;20686;6853;118373;-89
2022/09/27 07:52:57;;;;;;;0.63;0.53;;;15.40;53.20;;;;;;20710;6853;117519;-89
2022/09/27 07:55:23;;;;;;;0.70;0.70;;;15.30;53.70;;;;;;20701;6853;117502;-89
2022/09/27 07:57:49;;;;;;;0.87;0.87;;;15.00;53.80;;;;;;20485;6853;309163;-89
2022/09/27 08:00:15;;;;;;;0.70;0.70;;;15.00;52.00;;;;;;20695;6853;117506;-89
2022/09/27 08:02:41;;;;;;;1.43;1.03;;;15.00;52.00;;;;;;20671;6853;121144;-89
2022/09/27 08:05:08;;;;;;;2.28;2.17;;;14.80;52.90;;;;;;20699;6853;117937;-90
2022/09/27 08:07:34;;;;;;;1.13;1.13;;;14.70;53.20;;;;;;20670;6853;117907;-88
2022/09/27 08:10:00;;;;;;;1.30;1.30;;;14.40;53.70;;;;;;20706;6853;117562;-86
2022/09/27 08:12:26;;;;;;;3.27;3.10;;;14.40;53.70;;;;;;20710;6853;118384;-89
2022/09/27 08:14:52;;;;;;;9.90;9.30;;;14.30;54.00;;;;;;20509;6851;312551;-90
2022/09/27 08:17:18;;;;;;;8.32;7.82;;;14.50;52.50;;;;;;20737;6853;117386;-90
2022/09/27 08:19:44;;;;;;;12.90;12.02;;;14.50;52.80;;;;;;20505;6853;337677;-90
2022/09/27 08:22:10;;;;;;;4.20;4.00;;;14.70;52.90;;;;;;20712;6853;117896;-89
2022/09/27 08:24:35;;;;;;;5.55;5.25;;;14.70;53.20;;;;;;20484;6853;334824;-92
2022/09/27 08:27:01;;;;;;;2.33;2.12;;;14.80;51.80;;;;;;20703;6853;117800;-90
2022/09/27 08:29:26;;;;;;;1.50;1.50;;;14.80;52.40;;;;;;20702;6853;117384;-91
2022/09/27 08:31:53;;;;;;;1.70;1.60;;;14.70;53.20;;;;;;20529;6853;118189;-86
2022/09/27 08:34:18;;;;;;;1.25;0.93;;;14.70;53.90;;;;;;20700;6853;117386;-86
2022/09/27 08:36:43;;;;;;;1.87;1.00;;;14.60;54.30;;;;;;20697;6853;117508;-88
2022/09/27 08:39:09;;;;;;;1.43;1.43;;;14.60;54.30;;;;;;20497;6853;279494;-86
2022/09/27 08:41:38;;;;;;;1.90;1.80;;;15.70;52.10;;;;;;20474;6853;309388;-87
2022/09/27 08:44:10;;;;;;;2.03;1.93;;;15.60;52.00;;;;;;20699;6853;117581;-84
2022/09/27 08:46:52;;;;;;;0.43;0.43;;;16.00;52.40;;;;;;20053;6868;119290;-83
2022/09/27 08:49:18;;;;;;;0.80;0.80;;;16.00;52.40;;;;;;20438;6868;278893;-83
2022/09/27 08:51:45;;;;;;;0.37;0.37;;;16.40;49.90;;;;;;20619;6868;130110;-83
2022/09/27 08:54:24;;;;;;;1.10;1.00;;;16.10;49.90;;;;;;20649;6868;117762;-84
2022/09/27 08:56:50;;;;;;;0.80;0.80;;;16.10;49.90;;;;;;20663;6868;117516;-83
2022/09/27 08:59:19;;;;;;;0.50;0.50;;;15.80;51.10;;;;;;20646;6868;117624;-83
2022/09/27 09:01:41;;;;;;;1.70;0.60;;;15.40;50.70;;;;;;20421;6848;278757;-81
2022/09/27 09:04:06;;;;;;;2.10;2.00;;;15.30;49.80;;;;;;20779;6848;116804;-81
2022/09/27 09:06:32;;;;;;;3.72;3.53;;;15.10;50.50;;;;;;20749;6848;116485;-82
2022/09/27 09:08:57;;;;;;;4.82;4.53;;;14.80;51.40;;;;;;20739;6848;116765;-81
2022/09/27 09:14:21;;;;;;;3.67;3.47;;;14.20;52.20;;;;;;20751;6848;117036;-81
2022/09/27 09:16:57;;;;;;;1.40;1.40;;;14.00;52.70;;;;;;20717;6848;117300;-82
2022/09/27 09:19:29;;;;;;;1.10;1.10;;;13.80;53.20;;;;;;20654;6848;116550;-81
2022/09/27 09:22:31;;;;;;;2.13;2.03;;;13.70;53.40;;;;;;20736;6848;123479;-83
2022/09/27 09:24:57;;;;;;;2.40;2.30;;;13.50;53.60;;;;;;19437;7209;321767;-82
2022/09/27 09:27:23;;;;;;;1.33;1.30;;;14.20;51.70;;;;;;20126;6847;308097;-82
2022/09/27 09:29:58;;;;;;;9.37;8.77;;;14.10;51.60;;;;;;20695;6847;118464;-84
2022/09/27 09:32:30;;;;;;;9.50;8.83;;;14.10;52.00;;;;;;20708;6847;118104;-85
2022/09/27 09:35:00;;;;;;;5.70;5.40;;;13.80;52.90;;;;;;19875;6847;308728;-86
2022/09/27 09:37:44;;;;;;;3.92;3.72;;;14.10;54.90;;;;;;20474;6847;338237;-87
2022/09/27 09:40:37;;;;;;;2.90;2.70;;;14.60;52.80;;;;;;20699;6847;117693;-91
2022/09/27 09:43:10;;;;;;;3.73;3.57;;;14.70;52.60;;;;;;20507;6847;309291;-90
2022/09/27 09:45:40;;;;;;;2.20;2.00;;;15.40;52.60;;;;;;20455;6848;288063;-91
2022/09/27 09:48:14;;;;;;;0.70;0.70;;;15.40;52.50;;;;;;20502;6848;283331;-88
2022/09/27 09:50:44;;;;;;;4.43;4.10;;;15.80;53.20;;;;;;20708;6848;117893;-89
2022/09/27 09:53:20;;;;;;;2.20;2.07;;;16.00;53.10;;;;;;20685;6848;117432;-89
2022/09/27 09:55:57;;;;;;;0.87;0.87;;;16.00;53.30;;;;;;20691;6848;117432;-86
2022/09/27 09:58:43;;;;;;;3.07;2.97;;;15.90;53.50;;;;;;20711;6848;117427;-89
2022/09/27 10:01:25;;;;;;;5.22;4.93;;;15.90;53.40;;;;;;20481;6848;338425;-88
2022/09/27 10:03:50;;;;;;;1.90;1.80;;;16.10;51.20;;;;;;20689;6848;118036;-88
2022/09/27 10:06:17;;;;;;;1.03;0.93;;;16.10;52.40;;;;;;20734;6848;124558;-88
2022/09/27 10:08:42;;;;;;;4.30;2.57;;;16.10;52.40;;;;;;20719;6848;117904;-90
2022/09/27 10:11:08;;;;;;;2.28;2.17;;;16.10;52.40;;;;;;20522;6848;342087;-89
2022/09/27 10:13:33;;;;;;;1.95;1.30;;;16.40;50.60;;;;;;20410;6848;309338;-89
2022/09/27 10:16:06;;;;;;;2.45;2.30;;;17.30;49.30;;;;;;20506;6848;339076;-89
2022/09/27 10:18:31;;;;;;;2.90;1.70;;;17.30;49.30;;;;;;20687;6848;117502;-88
2022/09/27 10:21:00;;;;;;;2.93;2.00;;;17.30;49.20;;;;;;20709;6848;117454;-90
2022/09/27 10:23:25;;;;;;;1.70;1.60;;;17.10;49.90;;;;;;20706;6848;117605;-88
2022/09/27 10:25:57;;;;;;;1.70;1.60;;;17.00;50.10;;;;;;20696;6848;118275;-90
2022/09/27 10:28:36;;;;;;;2.20;2.10;;;16.90;50.50;;;;;;20499;6848;280038;-93
2022/09/27 10:31:01;;;;;;;1.30;1.20;;;17.10;47.50;;;;;;20721;6848;116532;-90
2022/09/27 10:33:29;;;;;;;1.83;1.27;;;17.10;48.30;;;;;;20697;6848;118825;-90
2022/09/27 10:35:54;;;;;;;2.10;1.50;;;16.90;46.40;;;;;;20498;6848;313389;-89
2022/09/27 10:38:30;;;;;;;1.50;1.30;;;16.90;46.40;;;;;;20708;6846;117991;-90
2022/09/27 10:40:55;;;;;;;2.77;1.20;;;16.80;47.50;;;;;;20726;6847;116782;-89
2022/09/27 10:43:32;;;;;;;2.67;1.30;;;16.50;48.80;;;;;;20730;6847;117142;-90
2022/09/27 10:46:04;;;;;;;1.40;1.30;;;16.50;48.70;;;;;;20741;6847;118648;-91
2022/09/27 10:48:29;;;;;;;2.00;1.27;;;16.50;48.70;;;;;;20726;6847;117869;-92
2022/09/27 10:50:57;;;;;;;2.62;1.20;;;16.40;48.70;;;;;;20520;6847;308143;-88
2022/09/27 10:53:22;;;;;;;0.87;0.87;;;16.50;46.00;;;;;;20713;6847;117742;-88
2022/09/27 10:55:48;;;;;;;1.33;1.23;;;16.40;47.80;;;;;;20679;6847;117573;-88
2022/09/27 10:58:19;;;;;;;1.70;1.37;;;16.30;47.70;;;;;;20505;6848;308616;-89
2022/09/27 11:00:44;;;;;;;1.10;1.00;;;16.70;46.70;;;;;;20709;6848;117395;-88
2022/09/27 11:03:13;;;;;;;2.40;1.30;;;17.00;47.20;;;;;;20672;6848;117925;-88
2022/09/27 11:05:39;;;;;;;2.17;1.45;;;17.30;44.90;;;;;;20463;6848;307743;-88
2022/09/27 11:08:26;;;;;;;2.30;1.37;;;17.20;44.80;;;;;;20683;6848;119956;-90
2022/09/27 11:11:15;;;;;;;1.65;1.02;;;17.50;46.30;;;;;;20500;6848;323779;-90
2022/09/27 11:13:39;;;;;;;1.08;0.88;;;17.70;44.00;;;;;;20530;6848;344164;-90
2022/09/27 11:16:28;;;;;;;1.07;0.80;;;18.20;42.90;;;;;;20515;6848;308374;-91
2022/09/27 11:19:02;;;;;;;1.00;0.70;;;18.40;41.80;;;;;;20515;6848;280215;-90
2022/09/27 11:22:08;;;;;;;1.73;1.00;;;18.50;42.00;;;;;;20490;6848;318046;-85
2022/09/27 11:24:56;;;;;;;0.63;0.63;;;18.50;42.00;;;;;;20592;6848;117692;-86
2022/09/27 11:27:22;;;;;;;0.97;0.63;;;18.20;42.50;;;;;;20691;6848;121078;-86
2022/09/27 11:30:10;;;;;;;0.85;0.60;;;17.50;44.10;;;;;;20700;6848;117473;-86
2022/09/27 11:32:59;;;;;;;1.07;0.70;;;17.50;44.00;;;;;;20707;6848;117849;-87
2022/09/27 11:35:25;;;;;;;0.77;0.60;;;17.20;44.60;;;;;;20719;6848;117579;-89
2022/09/27 11:38:09;;;;;;;0.80;0.80;;;17.10;45.50;;;;;;20667;6848;124876;-91
2022/09/27 11:40:34;;;;;;;1.43;0.90;;;17.00;45.80;;;;;;20470;6848;279124;-90
2022/09/27 11:42:59;;;;;;;1.77;0.82;;;17.30;43.00;;;;;;20447;6848;278782;-88
2022/09/27 11:45:35;;;;;;;0.47;0.43;;;17.60;42.30;;;;;;20661;6848;117985;-90
2022/09/27 11:48:10;;;;;;;0.63;0.63;;;17.60;43.20;;;;;;20695;6846;117583;-90
2022/09/27 11:50:52;;;;;;;0.90;0.80;;;17.50;44.00;;;;;;20438;6858;277558;-88
2022/09/27 11:53:43;;;;;;;2.67;0.70;;;17.80;42.90;;;;;;20706;6858;122568;-88
2022/09/27 11:56:19;;;;;;;0.60;0.40;;;18.00;43.70;;;;;;20760;6843;117473;-88
2022/09/27 11:59:20;;;;;;;0.80;0.50;;;17.90;44.30;;;;;;20723;6846;117560;-88
2022/09/27 12:01:49;;;;;;;0.40;0.40;;;17.70;45.20;;;;;;20659;6861;118550;-88
2022/09/27 12:04:17;;;;;;;0.67;0.67;;;17.50;44.90;;;;;;20454;6862;309083;-87
2022/09/27 12:07:09;;;;;;;0.60;0.60;;;17.70;43.20;;;;;;20324;6862;278028;-88
2022/09/27 12:09:39;;;;;;;1.87;0.53;;;17.90;43.50;;;;;;20625;6858;117473;-85
2022/09/27 12:12:05;;;;;;;0.70;0.70;;;17.70;44.00;;;;;;20660;6862;121398;-91
2022/09/27 12:14:34;;;;;;;2.00;0.70;;;17.70;43.80;;;;;;20430;6861;279567;-84
2022/09/27 12:17:01;;;;;;;0.53;0.53;;;17.80;42.50;;;;;;20684;6858;117777;-85
2022/09/27 12:19:26;;;;;;;0.90;0.67;;;17.60;43.30;;;;;;20443;6861;315345;-85
2022/09/27 12:21:53;;;;;;;0.80;0.80;;;17.70;44.10;;;;;;20428;6864;309468;-89
2022/09/27 12:24:19;;;;;;;1.10;1.00;;;18.00;43.20;;;;;;20659;6864;117620;-85
2022/09/27 12:26:44;;;;;;;2.33;0.90;;;17.90;43.90;;;;;;20439;6864;280004;-86
2022/09/27 12:29:13;;;;;;;1.33;0.88;;;17.90;43.90;;;;;;20671;6864;117524;-87
2022/09/27 12:31:45;;;;;;;2.40;0.70;;;17.70;44.00;;;;;;20511;6864;119196;-90
2022/09/27 12:34:17;;;;;;;0.70;0.70;;;17.30;44.70;;;;;;20668;6861;118024;-85
2022/09/27 12:36:44;;;;;;;0.53;0.53;;;16.80;45.00;;;;;;20658;6861;117578;-86
2022/09/27 12:39:22;;;;;;;2.62;0.65;;;15.80;46.40;;;;;;20661;6861;117993;-88
2022/09/27 12:41:48;;;;;;;0.97;0.70;;;15.80;46.40;;;;;;20627;6864;118412;-86
2022/09/27 12:44:13;;;;;;;1.00;0.88;;;15.50;47.50;;;;;;20418;6864;286816;-85
2022/09/27 12:46:49;;;;;;;1.03;0.73;;;15.50;48.70;;;;;;20654;6864;117512;-86
2022/09/27 12:49:31;;;;;;;1.43;0.80;;;15.40;48.90;;;;;;20650;6861;118042;-88
2022/09/27 12:51:57;;;;;;;0.90;0.80;;;15.20;49.40;;;;;;20469;6846;309013;-91
2022/09/27 12:54:45;;;;;;;0.93;0.90;;;15.30;50.20;;;;;;20450;6861;308889;-85
2022/09/27 12:57:41;;;;;;;0.70;0.70;;;15.70;50.70;;;;;;20685;6846;121694;-90
2022/09/27 13:00:24;;;;;;;1.53;0.40;;;15.80;50.50;;;;;;20639;6859;117959;-86
2022/09/27 13:03:01;;;;;;;0.70;0.60;;;15.70;50.60;;;;;;20659;6860;119400;-87
2022/09/27 13:05:53;;;;;;;1.37;0.60;;;15.70;51.00;;;;;;20510;6846;298302;-87